Terminal Aerodrome Forecast
Issued by NWS Caribou, ME

Home | Current Version | Previous Version | Text Only | Print | Product List | Glossary On
Versions: 1 2 3 4 5 6 7 8 9 10 11 12 13 14
952
FTUS41 KCAR 210520
TAFCAR
TAF
KCAR 210520Z 2106/2206 31009KT P6SM BKN060
     FM211500 32014G22KT P6SM BKN040
     FM212300 32007KT P6SM FEW040 SCT250=

USA.gov is the U.S. government's official web portal to all federal, state and local government web resources and services.